Rochester, NY

5:45 AM EST on November 22, 2014 (GMT -0500)
Monroe Ave at Cobbs Hill | Change Station
CLOSE
Current Station
Personal Weather Station
Location: Rochester, NY
Elevation: 528 ft
Nearby Weather Stations

Elev 528 ft 43.14 °N, 77.58 °W | Updated 1 minute ago

Partly Cloudy
Partly Cloudy
25.1 °F
Feels Like 25 °F
N
0.0
Wind Variable Wind from WNW
Gusts 3.0 mph

Today
High -- | Low -- °F
--% Chance of Precip.
Yesterday
High -- | Low -- °F
Precip. -- in
7:11 AM 4:40 PM
Waning Crescent, 0% visible
Pressure 30.34 in
Visibility 10.0 miles
Clouds Clear
Windchill 25 °F
Dew Point 10 °F
Humidity 52%
Rainfall 0.00 in
Snow Depth Not available.
UV 0 out of 12
Pollen .10 out of 12
Air Quality Not available.
Flu Activity Not available.
METAR KROC 220954Z 20010G18KT 10SM CLR M04/M12 A3030 RMK AO2 SLP272 T10441117

More Conditions Fewer Conditions

Pressure 30.34 in
Visibility 10.0 miles
Clouds Clear
Windchill 25 °F
Dew Point 10 °F
Humidity 52%
Rainfall 0.00 in
Snow Depth Not available.
UV 0 out of 12
Pollen .10 out of 12
Air Quality Not available.
Flu Activity Not available.
METAR KROC 220954Z 20010G18KT 10SM CLR M04/M12 A3030 RMK AO2 SLP272 T10441117

More Conditions Fewer Conditions

10-Day Weather Forecast

Almanac

Astronomy

Nov. 22, 2014 Rise Set
Actual Time
Civil Twilight
Nautical Twilight
Astronomical Twilight
Moon
Length of Visible Light
Length of Day
Tomorrow will be .
, % of the Moon is Illuminated

Today's Extremes

State Highs State Lows

Community

WunderPhotos

Upload Photos

1,772,805 photos uploaded!

WunderBlogs® & News

Nearby

Air Quality

  Air Quality AQ Index Pollutant
Not available.

Snow Depth

Station Depth Elevation

Earthquake Activity

City Distance Mag. Time & Date
Minimum magnitude displayed is 2.5.

Coastal Water Temperatures

Place Temperature

Nearby Weather Stations